sensor_id;sensor_type;location;lat;lon;timestamp;P1;durP1;ratioP1;P2;durP2;ratioP2
30398;SDS011;17195;50.838;7.214;2023-02-01T00:01:26;34.17;;;14.00;;
30398;SDS011;17195;50.838;7.214;2023-02-01T00:03:52;36.75;;;13.75;;
30398;SDS011;17195;50.838;7.214;2023-02-01T00:06:17;36.72;;;16.55;;
30398;SDS011;17195;50.838;7.214;2023-02-01T00:08:43;47.05;;;20.40;;
30398;SDS011;17195;50.838;7.214;2023-02-01T00:11:10;33.63;;;15.32;;
30398;SDS011;17195;50.838;7.214;2023-02-01T00:13:37;32.38;;;14.88;;
30398;SDS011;17195;50.838;7.214;2023-02-01T00:16:05;39.70;;;19.63;;
30398;SDS011;17195;50.838;7.214;2023-02-01T00:18:35;27.63;;;13.82;;
30398;SDS011;17195;50.838;7.214;2023-02-01T00:21:01;31.58;;;12.88;;
30398;SDS011;17195;50.838;7.214;2023-02-01T00:23:26;38.58;;;15.00;;
30398;SDS011;17195;50.838;7.214;2023-02-01T00:25:52;34.30;;;15.25;;
30398;SDS011;17195;50.838;7.214;2023-02-01T00:28:18;27.13;;;10.73;;
30398;SDS011;17195;50.838;7.214;2023-02-01T00:30:43;29.42;;;14.05;;
30398;SDS011;17195;50.838;7.214;2023-02-01T00:33:09;29.63;;;13.93;;
30398;SDS011;17195;50.838;7.214;2023-02-01T00:35:35;38.92;;;15.45;;
30398;SDS011;17195;50.838;7.214;2023-02-01T00:38:00;25.42;;;11.43;;
30398;SDS011;17195;50.838;7.214;2023-02-01T00:40:26;35.40;;;13.70;;
30398;SDS011;17195;50.838;7.214;2023-02-01T00:42:51;30.27;;;13.85;;
30398;SDS011;17195;50.838;7.214;2023-02-01T00:45:17;33.72;;;14.95;;
30398;SDS011;17195;50.838;7.214;2023-02-01T00:47:43;33.55;;;13.02;;
30398;SDS011;17195;50.838;7.214;2023-02-01T00:50:08;35.33;;;13.45;;
30398;SDS011;17195;50.838;7.214;2023-02-01T00:52:35;27.25;;;11.50;;
30398;SDS011;17195;50.838;7.214;2023-02-01T00:55:00;22.85;;;10.30;;
30398;SDS011;17195;50.838;7.214;2023-02-01T00:57:26;25.20;;;10.57;;
30398;SDS011;17195;50.838;7.214;2023-02-01T00:59:52;24.63;;;9.38;;
30398;SDS011;17195;50.838;7.214;2023-02-01T01:02:17;30.10;;;10.07;;
30398;SDS011;17195;50.838;7.214;2023-02-01T01:04:43;27.85;;;9.55;;
30398;SDS011;17195;50.838;7.214;2023-02-01T01:07:08;23.73;;;7.70;;
30398;SDS011;17195;50.838;7.214;2023-02-01T01:09:34;29.35;;;10.25;;
30398;SDS011;17195;50.838;7.214;2023-02-01T01:11:59;20.40;;;8.25;;
30398;SDS011;17195;50.838;7.214;2023-02-01T01:14:27;25.63;;;8.43;;
30398;SDS011;17195;50.838;7.214;2023-02-01T01:16:53;21.52;;;9.00;;
30398;SDS011;17195;50.838;7.214;2023-02-01T01:19:19;30.42;;;9.20;;
30398;SDS011;17195;50.838;7.214;2023-02-01T01:21:44;26.42;;;8.50;;
30398;SDS011;17195;50.838;7.214;2023-02-01T01:24:10;22.88;;;6.07;;
30398;SDS011;17195;50.838;7.214;2023-02-01T01:26:36;22.65;;;6.47;;
30398;SDS011;17195;50.838;7.214;2023-02-01T01:29:01;19.95;;;6.20;;
30398;SDS011;17195;50.838;7.214;2023-02-01T01:31:28;18.52;;;5.35;;
30398;SDS011;17195;50.838;7.214;2023-02-01T01:33:54;22.27;;;5.75;;
30398;SDS011;17195;50.838;7.214;2023-02-01T01:36:21;21.42;;;4.70;;
30398;SDS011;17195;50.838;7.214;2023-02-01T01:38:47;19.33;;;5.38;;
30398;SDS011;17195;50.838;7.214;2023-02-01T01:41:32;26.13;;;5.45;;
30398;SDS011;17195;50.838;7.214;2023-02-01T01:43:59;22.02;;;4.65;;
30398;SDS011;17195;50.838;7.214;2023-02-01T01:46:27;21.58;;;5.53;;
30398;SDS011;17195;50.838;7.214;2023-02-01T01:51:25;18.50;;;4.53;;
30398;SDS011;17195;50.838;7.214;2023-02-01T01:54:06;18.52;;;4.45;;
30398;SDS011;17195;50.838;7.214;2023-02-01T01:56:42;18.95;;;4.20;;
30398;SDS011;17195;50.838;7.214;2023-02-01T01:59:11;14.73;;;4.03;;
30398;SDS011;17195;50.838;7.214;2023-02-01T02:01:37;17.90;;;3.45;;
30398;SDS011;17195;50.838;7.214;2023-02-01T02:04:03;23.13;;;5.35;;
30398;SDS011;17195;50.838;7.214;2023-02-01T02:06:32;18.95;;;4.32;;
30398;SDS011;17195;50.838;7.214;2023-02-01T02:09:15;14.82;;;4.28;;
30398;SDS011;17195;50.838;7.214;2023-02-01T02:11:41;17.20;;;4.22;;
30398;SDS011;17195;50.838;7.214;2023-02-01T02:14:07;19.05;;;4.20;;
30398;SDS011;17195;50.838;7.214;2023-02-01T02:31:06;22.85;;;4.28;;
30398;SDS011;17195;50.838;7.214;2023-02-01T02:47:46;22.00;;;5.22;;
30398;SDS011;17195;50.838;7.214;2023-02-01T02:50:24;25.88;;;4.95;;
30398;SDS011;17195;50.838;7.214;2023-02-01T02:53:26;20.98;;;4.53;;
30398;SDS011;17195;50.838;7.214;2023-02-01T02:56:20;20.33;;;4.47;;
30398;SDS011;17195;50.838;7.214;2023-02-01T02:59:08;17.58;;;4.45;;
30398;SDS011;17195;50.838;7.214;2023-02-01T03:01:54;20.67;;;4.90;;
30398;SDS011;17195;50.838;7.214;2023-02-01T03:04:38;22.02;;;4.50;;
30398;SDS011;17195;50.838;7.214;2023-02-01T03:07:11;23.02;;;4.38;;
30398;SDS011;17195;50.838;7.214;2023-02-01T03:09:57;23.35;;;4.88;;
30398;SDS011;17195;50.838;7.214;2023-02-01T03:12:29;24.42;;;4.57;;
30398;SDS011;17195;50.838;7.214;2023-02-01T03:15:15;22.52;;;4.60;;
30398;SDS011;17195;50.838;7.214;2023-02-01T03:17:41;15.05;;;4.25;;
30398;SDS011;17195;50.838;7.214;2023-02-01T03:20:09;12.88;;;4.13;;
30398;SDS011;17195;50.838;7.214;2023-02-01T03:22:38;17.83;;;4.43;;
30398;SDS011;17195;50.838;7.214;2023-02-01T03:25:08;20.73;;;4.72;;
30398;SDS011;17195;50.838;7.214;2023-02-01T03:27:44;16.45;;;4.88;;
30398;SDS011;17195;50.838;7.214;2023-02-01T03:30:42;24.48;;;4.55;;
30398;SDS011;17195;50.838;7.214;2023-02-01T03:33:12;22.77;;;4.40;;
30398;SDS011;17195;50.838;7.214;2023-02-01T03:35:49;17.67;;;4.47;;
30398;SDS011;17195;50.838;7.214;2023-02-01T03:38:30;26.65;;;5.30;;
30398;SDS011;17195;50.838;7.214;2023-02-01T03:41:07;21.83;;;4.78;;
30398;SDS011;17195;50.838;7.214;2023-02-01T03:43:51;22.52;;;4.43;;
30398;SDS011;17195;50.838;7.214;2023-02-01T03:46:41;17.90;;;4.85;;
30398;SDS011;17195;50.838;7.214;2023-02-01T03:49:13;22.65;;;4.50;;
30398;SDS011;17195;50.838;7.214;2023-02-01T03:51:43;15.68;;;4.28;;
30398;SDS011;17195;50.838;7.214;2023-02-01T03:54:10;24.83;;;5.38;;
30398;SDS011;17195;50.838;7.214;2023-02-01T03:56:39;24.02;;;5.07;;
30398;SDS011;17195;50.838;7.214;2023-02-01T03:59:09;23.02;;;5.07;;
30398;SDS011;17195;50.838;7.214;2023-02-01T04:01:35;25.65;;;6.53;;
30398;SDS011;17195;50.838;7.214;2023-02-01T04:04:01;16.48;;;4.60;;
30398;SDS011;17195;50.838;7.214;2023-02-01T04:06:26;14.77;;;4.43;;
30398;SDS011;17195;50.838;7.214;2023-02-01T04:08:52;23.83;;;5.05;;
30398;SDS011;17195;50.838;7.214;2023-02-01T04:11:17;21.20;;;5.75;;
30398;SDS011;17195;50.838;7.214;2023-02-01T04:13:43;20.48;;;5.22;;
30398;SDS011;17195;50.838;7.214;2023-02-01T04:16:09;19.23;;;5.00;;
30398;SDS011;17195;50.838;7.214;2023-02-01T04:18:35;21.20;;;5.00;;
30398;SDS011;17195;50.838;7.214;2023-02-01T04:21:01;27.50;;;5.72;;
30398;SDS011;17195;50.838;7.214;2023-02-01T04:23:27;21.58;;;5.32;;
30398;SDS011;17195;50.838;7.214;2023-02-01T04:25:55;23.40;;;4.97;;
30398;SDS011;17195;50.838;7.214;2023-02-01T04:28:24;20.02;;;5.18;;
30398;SDS011;17195;50.838;7.214;2023-02-01T04:30:49;20.95;;;4.47;;
30398;SDS011;17195;50.838;7.214;2023-02-01T04:33:15;25.58;;;5.25;;
30398;SDS011;17195;50.838;7.214;2023-02-01T04:35:40;19.95;;;4.72;;
30398;SDS011;17195;50.838;7.214;2023-02-01T04:38:06;18.33;;;5.32;;
30398;SDS011;17195;50.838;7.214;2023-02-01T04:40:32;22.50;;;5.47;;
30398;SDS011;17195;50.838;7.214;2023-02-01T04:42:57;19.90;;;5.35;;
30398;SDS011;17195;50.838;7.214;2023-02-01T04:45:23;26.13;;;5.80;;
30398;SDS011;17195;50.838;7.214;2023-02-01T04:47:49;16.10;;;4.20;;
30398;SDS011;17195;50.838;7.214;2023-02-01T04:50:14;25.17;;;5.82;;
30398;SDS011;17195;50.838;7.214;2023-02-01T04:52:40;19.42;;;4.82;;
30398;SDS011;17195;50.838;7.214;2023-02-01T04:55:06;29.40;;;6.30;;
30398;SDS011;17195;50.838;7.214;2023-02-01T04:57:32;27.75;;;5.80;;
30398;SDS011;17195;50.838;7.214;2023-02-01T04:59:58;26.00;;;5.78;;
30398;SDS011;17195;50.838;7.214;2023-02-01T05:02:23;24.10;;;5.75;;
30398;SDS011;17195;50.838;7.214;2023-02-01T05:04:49;24.42;;;5.80;;
30398;SDS011;17195;50.838;7.214;2023-02-01T05:07:15;22.95;;;5.60;;
30398;SDS011;17195;50.838;7.214;2023-02-01T05:09:41;18.50;;;4.95;;
30398;SDS011;17195;50.838;7.214;2023-02-01T05:12:07;26.90;;;4.88;;
30398;SDS011;17195;50.838;7.214;2023-02-01T05:14:53;21.30;;;4.72;;
30398;SDS011;17195;50.838;7.214;2023-02-01T05:17:19;21.63;;;5.10;;
30398;SDS011;17195;50.838;7.214;2023-02-01T05:19:44;19.05;;;4.35;;
30398;SDS011;17195;50.838;7.214;2023-02-01T05:22:10;19.95;;;4.47;;
30398;SDS011;17195;50.838;7.214;2023-02-01T05:24:35;19.63;;;4.47;;
30398;SDS011;17195;50.838;7.214;2023-02-01T05:27:01;21.27;;;4.32;;
30398;SDS011;17195;50.838;7.214;2023-02-01T05:29:26;20.10;;;4.63;;
30398;SDS011;17195;50.838;7.214;2023-02-01T05:31:52;19.42;;;4.65;;
30398;SDS011;17195;50.838;7.214;2023-02-01T05:34:18;19.80;;;4.30;;
30398;SDS011;17195;50.838;7.214;2023-02-01T05:36:43;15.80;;;3.78;;
30398;SDS011;17195;50.838;7.214;2023-02-01T05:39:09;32.88;;;5.30;;
30398;SDS011;17195;50.838;7.214;2023-02-01T05:41:35;23.45;;;4.50;;
30398;SDS011;17195;50.838;7.214;2023-02-01T05:44:00;16.98;;;3.75;;
30398;SDS011;17195;50.838;7.214;2023-02-01T05:46:26;18.75;;;3.03;;
30398;SDS011;17195;50.838;7.214;2023-02-01T05:48:52;24.13;;;3.97;;
30398;SDS011;17195;50.838;7.214;2023-02-01T05:51:17;18.52;;;3.80;;
30398;SDS011;17195;50.838;7.214;2023-02-01T05:53:43;19.67;;;4.38;;
30398;SDS011;17195;50.838;7.214;2023-02-01T05:56:08;19.38;;;3.15;;
30398;SDS011;17195;50.838;7.214;2023-02-01T05:58:34;21.27;;;4.13;;
30398;SDS011;17195;50.838;7.214;2023-02-01T06:01:00;21.05;;;4.18;;
30398;SDS011;17195;50.838;7.214;2023-02-01T06:03:26;23.33;;;4.57;;
30398;SDS011;17195;50.838;7.214;2023-02-01T06:05:52;23.02;;;3.97;;
30398;SDS011;17195;50.838;7.214;2023-02-01T06:08:17;21.13;;;3.65;;
30398;SDS011;17195;50.838;7.214;2023-02-01T06:10:43;19.42;;;3.70;;
30398;SDS011;17195;50.838;7.214;2023-02-01T06:13:09;15.25;;;3.08;;
30398;SDS011;17195;50.838;7.214;2023-02-01T06:15:35;19.92;;;4.00;;
30398;SDS011;17195;50.838;7.214;2023-02-01T06:18:02;23.75;;;4.13;;
30398;SDS011;17195;50.838;7.214;2023-02-01T06:20:28;18.88;;;3.53;;
30398;SDS011;17195;50.838;7.214;2023-02-01T06:22:54;20.45;;;3.90;;
30398;SDS011;17195;50.838;7.214;2023-02-01T06:25:19;19.48;;;3.20;;
30398;SDS011;17195;50.838;7.214;2023-02-01T06:27:46;18.85;;;3.67;;
30398;SDS011;17195;50.838;7.214;2023-02-01T06:30:12;17.75;;;3.92;;
30398;SDS011;17195;50.838;7.214;2023-02-01T06:32:40;29.50;;;3.63;;
30398;SDS011;17195;50.838;7.214;2023-02-01T06:35:07;21.55;;;3.83;;
30398;SDS011;17195;50.838;7.214;2023-02-01T06:37:36;31.15;;;4.35;;
30398;SDS011;17195;50.838;7.214;2023-02-01T06:40:02;24.75;;;4.15;;
30398;SDS011;17195;50.838;7.214;2023-02-01T06:42:28;21.38;;;4.10;;
30398;SDS011;17195;50.838;7.214;2023-02-01T06:44:54;20.70;;;4.13;;
30398;SDS011;17195;50.838;7.214;2023-02-01T06:47:19;19.92;;;3.50;;
30398;SDS011;17195;50.838;7.214;2023-02-01T06:49:45;19.45;;;4.00;;
30398;SDS011;17195;50.838;7.214;2023-02-01T06:52:10;21.35;;;3.35;;
30398;SDS011;17195;50.838;7.214;2023-02-01T06:54:36;21.70;;;4.30;;
30398;SDS011;17195;50.838;7.214;2023-02-01T06:57:02;24.00;;;3.83;;
30398;SDS011;17195;50.838;7.214;2023-02-01T06:59:28;24.50;;;4.40;;
30398;SDS011;17195;50.838;7.214;2023-02-01T07:01:54;24.67;;;3.95;;
30398;SDS011;17195;50.838;7.214;2023-02-01T07:04:19;20.23;;;4.85;;
30398;SDS011;17195;50.838;7.214;2023-02-01T07:06:45;20.13;;;3.33;;
30398;SDS011;17195;50.838;7.214;2023-02-01T07:09:10;20.00;;;4.15;;
30398;SDS011;17195;50.838;7.214;2023-02-01T07:11:37;21.05;;;3.67;;
30398;SDS011;17195;50.838;7.214;2023-02-01T07:14:05;20.55;;;3.70;;
30398;SDS011;17195;50.838;7.214;2023-02-01T07:16:31;15.93;;;3.60;;
30398;SDS011;17195;50.838;7.214;2023-02-01T07:18:56;22.75;;;4.25;;
30398;SDS011;17195;50.838;7.214;2023-02-01T07:21:23;23.60;;;3.92;;
30398;SDS011;17195;50.838;7.214;2023-02-01T07:23:49;19.77;;;4.13;;
30398;SDS011;17195;50.838;7.214;2023-02-01T07:26:14;18.73;;;3.85;;
30398;SDS011;17195;50.838;7.214;2023-02-01T07:28:41;29.10;;;3.80;;
30398;SDS011;17195;50.838;7.214;2023-02-01T07:31:08;18.23;;;3.88;;
30398;SDS011;17195;50.838;7.214;2023-02-01T07:33:36;22.48;;;3.85;;
30398;SDS011;17195;50.838;7.214;2023-02-01T07:36:02;22.60;;;4.00;;
30398;SDS011;17195;50.838;7.214;2023-02-01T07:38:30;26.40;;;4.22;;
30398;SDS011;17195;50.838;7.214;2023-02-01T07:40:59;29.27;;;5.00;;
30398;SDS011;17195;50.838;7.214;2023-02-01T07:43:25;22.35;;;4.63;;
30398;SDS011;17195;50.838;7.214;2023-02-01T07:45:52;20.98;;;4.32;;
30398;SDS011;17195;50.838;7.214;2023-02-01T07:48:18;21.83;;;4.70;;
30398;SDS011;17195;50.838;7.214;2023-02-01T07:50:44;26.45;;;4.25;;
30398;SDS011;17195;50.838;7.214;2023-02-01T07:53:10;17.65;;;3.78;;
30398;SDS011;17195;50.838;7.214;2023-02-01T07:55:38;18.52;;;4.28;;
30398;SDS011;17195;50.838;7.214;2023-02-01T07:58:05;22.17;;;3.50;;
30398;SDS011;17195;50.838;7.214;2023-02-01T08:00:30;22.30;;;4.50;;
30398;SDS011;17195;50.838;7.214;2023-02-01T08:03:34;21.20;;;4.55;;
30398;SDS011;17195;50.838;7.214;2023-02-01T08:06:00;21.60;;;3.60;;
30398;SDS011;17195;50.838;7.214;2023-02-01T08:08:25;22.02;;;4.22;;
30398;SDS011;17195;50.838;7.214;2023-02-01T08:10:51;22.58;;;4.50;;
30398;SDS011;17195;50.838;7.214;2023-02-01T08:13:21;23.33;;;4.20;;
30398;SDS011;17195;50.838;7.214;2023-02-01T08:15:47;19.38;;;3.70;;
30398;SDS011;17195;50.838;7.214;2023-02-01T08:18:12;19.58;;;4.40;;
30398;SDS011;17195;50.838;7.214;2023-02-01T08:20:41;20.73;;;4.82;;
30398;SDS011;17195;50.838;7.214;2023-02-01T08:23:08;17.77;;;3.08;;
30398;SDS011;17195;50.838;7.214;2023-02-01T08:25:34;20.88;;;4.28;;
30398;SDS011;17195;50.838;7.214;2023-02-01T08:28:01;17.48;;;3.63;;
30398;SDS011;17195;50.838;7.214;2023-02-01T08:30:27;20.98;;;4.15;;
30398;SDS011;17195;50.838;7.214;2023-02-01T08:32:52;28.02;;;4.07;;
30398;SDS011;17195;50.838;7.214;2023-02-01T08:35:18;21.50;;;3.20;;
30398;SDS011;17195;50.838;7.214;2023-02-01T08:37:43;19.90;;;3.45;;
30398;SDS011;17195;50.838;7.214;2023-02-01T08:40:09;27.45;;;4.22;;
30398;SDS011;17195;50.838;7.214;2023-02-01T08:42:35;26.33;;;3.92;;
30398;SDS011;17195;50.838;7.214;2023-02-01T08:45:16;25.98;;;3.72;;
30398;SDS011;17195;50.838;7.214;2023-02-01T08:47:53;24.85;;;4.93;;
30398;SDS011;17195;50.838;7.214;2023-02-01T08:50:19;18.02;;;3.95;;
30398;SDS011;17195;50.838;7.214;2023-02-01T08:52:46;22.80;;;3.70;;
30398;SDS011;17195;50.838;7.214;2023-02-01T08:55:12;20.30;;;4.35;;
30398;SDS011;17195;50.838;7.214;2023-02-01T08:57:38;22.67;;;4.28;;
30398;SDS011;17195;50.838;7.214;2023-02-01T09:00:05;29.05;;;4.93;;
30398;SDS011;17195;50.838;7.214;2023-02-01T09:02:36;23.23;;;4.05;;
30398;SDS011;17195;50.838;7.214;2023-02-01T09:05:02;21.30;;;3.38;;
30398;SDS011;17195;50.838;7.214;2023-02-01T09:07:28;22.05;;;3.72;;
30398;SDS011;17195;50.838;7.214;2023-02-01T09:09:54;24.02;;;3.78;;
30398;SDS011;17195;50.838;7.214;2023-02-01T09:12:21;22.73;;;4.57;;
30398;SDS011;17195;50.838;7.214;2023-02-01T09:14:47;19.42;;;3.92;;
30398;SDS011;17195;50.838;7.214;2023-02-01T09:17:12;18.92;;;3.80;;
30398;SDS011;17195;50.838;7.214;2023-02-01T09:19:38;21.40;;;3.85;;
30398;SDS011;17195;50.838;7.214;2023-02-01T09:22:04;22.27;;;3.95;;
30398;SDS011;17195;50.838;7.214;2023-02-01T09:24:29;17.00;;;3.33;;
30398;SDS011;17195;50.838;7.214;2023-02-01T09:26:55;20.13;;;3.65;;
30398;SDS011;17195;50.838;7.214;2023-02-01T09:29:21;18.98;;;3.33;;
30398;SDS011;17195;50.838;7.214;2023-02-01T09:31:46;22.25;;;4.47;;
30398;SDS011;17195;50.838;7.214;2023-02-01T09:34:12;22.00;;;4.03;;
30398;SDS011;17195;50.838;7.214;2023-02-01T09:36:37;24.48;;;3.65;;
30398;SDS011;17195;50.838;7.214;2023-02-01T09:39:03;14.60;;;3.85;;
30398;SDS011;17195;50.838;7.214;2023-02-01T09:41:35;20.23;;;6.07;;
30398;SDS011;17195;50.838;7.214;2023-02-01T09:44:18;15.32;;;3.72;;
30398;SDS011;17195;50.838;7.214;2023-02-01T09:47:10;27.20;;;5.60;;
30398;SDS011;17195;50.838;7.214;2023-02-01T09:50:00;17.35;;;3.42;;
30398;SDS011;17195;50.838;7.214;2023-02-01T09:52:53;20.92;;;3.70;;
30398;SDS011;17195;50.838;7.214;2023-02-01T09:55:39;26.98;;;3.75;;
30398;SDS011;17195;50.838;7.214;2023-02-01T10:01:10;20.63;;;3.58;;
30398;SDS011;17195;50.838;7.214;2023-02-01T10:04:03;15.02;;;4.00;;
30398;SDS011;17195;50.838;7.214;2023-02-01T10:15:11;26.55;;;4.45;;
30398;SDS011;17195;50.838;7.214;2023-02-01T10:18:14;21.77;;;4.15;;
30398;SDS011;17195;50.838;7.214;2023-02-01T10:26:37;19.48;;;3.45;;
30398;SDS011;17195;50.838;7.214;2023-02-01T10:29:12;20.88;;;4.55;;
30398;SDS011;17195;50.838;7.214;2023-02-01T10:31:43;20.40;;;3.58;;
30398;SDS011;17195;50.838;7.214;2023-02-01T10:34:15;21.58;;;3.67;;
30398;SDS011;17195;50.838;7.214;2023-02-01T10:39:37;40.67;;;4.38;;
30398;SDS011;17195;50.838;7.214;2023-02-01T10:42:02;24.35;;;3.00;;
30398;SDS011;17195;50.838;7.214;2023-02-01T10:44:29;22.70;;;3.42;;
30398;SDS011;17195;50.838;7.214;2023-02-01T10:46:56;24.55;;;3.60;;
30398;SDS011;17195;50.838;7.214;2023-02-01T10:49:23;21.30;;;3.10;;
30398;SDS011;17195;50.838;7.214;2023-02-01T10:51:55;15.88;;;2.67;;
30398;SDS011;17195;50.838;7.214;2023-02-01T10:54:34;16.48;;;2.85;;
30398;SDS011;17195;50.838;7.214;2023-02-01T10:57:03;19.20;;;4.15;;
30398;SDS011;17195;50.838;7.214;2023-02-01T10:59:33;17.73;;;2.97;;
30398;SDS011;17195;50.838;7.214;2023-02-01T11:02:02;18.67;;;3.78;;
30398;SDS011;17195;50.838;7.214;2023-02-01T11:04:40;22.52;;;3.83;;
30398;SDS011;17195;50.838;7.214;2023-02-01T11:09:39;19.20;;;3.78;;
30398;SDS011;17195;50.838;7.214;2023-02-01T11:12:10;21.65;;;2.80;;
30398;SDS011;17195;50.838;7.214;2023-02-01T11:14:57;24.35;;;3.35;;
30398;SDS011;17195;50.838;7.214;2023-02-01T11:17:39;20.67;;;3.30;;
30398;SDS011;17195;50.838;7.214;2023-02-01T11:23:02;14.85;;;3.40;;
30398;SDS011;17195;50.838;7.214;2023-02-01T11:25:27;15.75;;;3.42;;
30398;SDS011;17195;50.838;7.214;2023-02-01T11:27:54;16.95;;;3.38;;
30398;SDS011;17195;50.838;7.214;2023-02-01T11:30:27;19.05;;;3.88;;
30398;SDS011;17195;50.838;7.214;2023-02-01T11:33:05;15.30;;;3.33;;
30398;SDS011;17195;50.838;7.214;2023-02-01T11:35:32;16.15;;;3.63;;
30398;SDS011;17195;50.838;7.214;2023-02-01T11:38:11;19.50;;;3.88;;
30398;SDS011;17195;50.838;7.214;2023-02-01T11:40:47;18.27;;;3.88;;
30398;SDS011;17195;50.838;7.214;2023-02-01T11:43:15;16.15;;;3.58;;
30398;SDS011;17195;50.838;7.214;2023-02-01T11:46:02;15.23;;;3.03;;
30398;SDS011;17195;50.838;7.214;2023-02-01T11:48:31;14.32;;;3.20;;
30398;SDS011;17195;50.838;7.214;2023-02-01T11:56:54;16.10;;;2.97;;
30398;SDS011;17195;50.838;7.214;2023-02-01T12:02:39;19.90;;;3.33;;
30398;SDS011;17195;50.838;7.214;2023-02-01T12:05:27;22.77;;;3.80;;
30398;SDS011;17195;50.838;7.214;2023-02-01T12:08:16;19.27;;;3.03;;
30398;SDS011;17195;50.838;7.214;2023-02-01T12:16:40;19.85;;;2.90;;
30398;SDS011;17195;50.838;7.214;2023-02-01T12:41:28;11.93;;;2.95;;
30398;SDS011;17195;50.838;7.214;2023-02-01T12:44:03;17.48;;;2.90;;
30398;SDS011;17195;50.838;7.214;2023-02-01T12:49:27;21.35;;;3.50;;
30398;SDS011;17195;50.838;7.214;2023-02-01T12:52:09;14.38;;;3.25;;
30398;SDS011;17195;50.838;7.214;2023-02-01T12:54:41;21.65;;;3.15;;
30398;SDS011;17195;50.838;7.214;2023-02-01T12:57:17;18.60;;;3.10;;
30398;SDS011;17195;50.838;7.214;2023-02-01T12:59:59;17.15;;;3.22;;
30398;SDS011;17195;50.838;7.214;2023-02-01T13:02:42;17.60;;;3.07;;
30398;SDS011;17195;50.838;7.214;2023-02-01T13:15:30;20.90;;;2.80;;
30398;SDS011;17195;50.838;7.214;2023-02-01T13:18:02;19.58;;;3.45;;
30398;SDS011;17195;50.838;7.214;2023-02-01T13:20:31;21.02;;;2.95;;
30398;SDS011;17195;50.838;7.214;2023-02-01T13:23:04;16.90;;;2.72;;
30398;SDS011;17195;50.838;7.214;2023-02-01T13:25:48;12.63;;;3.00;;
30398;SDS011;17195;50.838;7.214;2023-02-01T13:28:22;17.55;;;2.72;;
30398;SDS011;17195;50.838;7.214;2023-02-01T13:33:43;17.23;;;2.92;;
30398;SDS011;17195;50.838;7.214;2023-02-01T13:39:34;18.67;;;2.60;;
30398;SDS011;17195;50.838;7.214;2023-02-01T13:41:57;11.88;;;2.75;;
30398;SDS011;17195;50.838;7.214;2023-02-01T13:49:58;20.67;;;3.47;;
30398;SDS011;17195;50.838;7.214;2023-02-01T13:52:28;24.35;;;3.47;;
30398;SDS011;17195;50.838;7.214;2023-02-01T13:57:50;13.57;;;3.83;;
30398;SDS011;17195;50.838;7.214;2023-02-01T14:00:41;12.23;;;2.63;;
30398;SDS011;17195;50.838;7.214;2023-02-01T14:03:10;17.70;;;3.92;;
30398;SDS011;17195;50.838;7.214;2023-02-01T14:13:23;15.57;;;2.78;;
30398;SDS011;17195;50.838;7.214;2023-02-01T14:21:12;21.23;;;2.90;;
30398;SDS011;17195;50.838;7.214;2023-02-01T14:23:47;20.20;;;3.30;;
30398;SDS011;17195;50.838;7.214;2023-02-01T14:26:43;16.83;;;3.30;;
30398;SDS011;17195;50.838;7.214;2023-02-01T14:32:06;19.63;;;3.20;;
30398;SDS011;17195;50.838;7.214;2023-02-01T14:42:22;11.18;;;2.25;;
30398;SDS011;17195;50.838;7.214;2023-02-01T14:44:51;12.02;;;2.83;;
30398;SDS011;17195;50.838;7.214;2023-02-01T14:52:43;14.98;;;2.25;;
30398;SDS011;17195;50.838;7.214;2023-02-01T14:55:16;16.50;;;2.80;;
30398;SDS011;17195;50.838;7.214;2023-02-01T15:01:27;12.77;;;2.08;;
30398;SDS011;17195;50.838;7.214;2023-02-01T15:04:01;15.32;;;2.50;;
30398;SDS011;17195;50.838;7.214;2023-02-01T15:12:00;8.55;;;2.22;;
30398;SDS011;17195;50.838;7.214;2023-02-01T15:14:27;15.98;;;2.95;;
30398;SDS011;17195;50.838;7.214;2023-02-01T15:16:54;23.85;;;3.40;;
30398;SDS011;17195;50.838;7.214;2023-02-01T15:19:24;18.98;;;5.18;;
30398;SDS011;17195;50.838;7.214;2023-02-01T15:21:52;24.90;;;7.07;;
30398;SDS011;17195;50.838;7.214;2023-02-01T15:24:20;22.20;;;6.32;;
30398;SDS011;17195;50.838;7.214;2023-02-01T15:26:54;26.38;;;7.15;;
30398;SDS011;17195;50.838;7.214;2023-02-01T15:29:21;16.98;;;3.80;;
30398;SDS011;17195;50.838;7.214;2023-02-01T15:31:52;18.17;;;2.10;;
30398;SDS011;17195;50.838;7.214;2023-02-01T15:34:18;11.90;;;2.90;;
30398;SDS011;17195;50.838;7.214;2023-02-01T15:36:46;14.77;;;2.30;;
30398;SDS011;17195;50.838;7.214;2023-02-01T15:39:13;22.55;;;3.90;;
30398;SDS011;17195;50.838;7.214;2023-02-01T15:41:52;15.10;;;2.45;;
30398;SDS011;17195;50.838;7.214;2023-02-01T15:46:57;27.27;;;6.28;;
30398;SDS011;17195;50.838;7.214;2023-02-01T15:49:27;17.80;;;5.38;;
30398;SDS011;17195;50.838;7.214;2023-02-01T15:51:56;8.98;;;2.58;;
30398;SDS011;17195;50.838;7.214;2023-02-01T15:54:28;11.90;;;2.70;;
30398;SDS011;17195;50.838;7.214;2023-02-01T15:57:03;17.58;;;2.95;;
30398;SDS011;17195;50.838;7.214;2023-02-01T15:59:42;11.50;;;2.65;;
30398;SDS011;17195;50.838;7.214;2023-02-01T16:04:59;15.38;;;2.90;;
30398;SDS011;17195;50.838;7.214;2023-02-01T16:07:28;17.50;;;2.70;;
30398;SDS011;17195;50.838;7.214;2023-02-01T16:09:58;15.70;;;2.67;;
30398;SDS011;17195;50.838;7.214;2023-02-01T16:12:44;11.70;;;2.45;;
30398;SDS011;17195;50.838;7.214;2023-02-01T16:15:11;17.40;;;3.22;;
30398;SDS011;17195;50.838;7.214;2023-02-01T16:17:37;12.10;;;2.30;;
30398;SDS011;17195;50.838;7.214;2023-02-01T16:20:03;15.93;;;2.30;;
30398;SDS011;17195;50.838;7.214;2023-02-01T16:22:29;14.05;;;2.40;;
30398;SDS011;17195;50.838;7.214;2023-02-01T16:24:55;9.60;;;1.80;;
30398;SDS011;17195;50.838;7.214;2023-02-01T16:27:20;11.25;;;2.38;;
30398;SDS011;17195;50.838;7.214;2023-02-01T16:29:47;13.77;;;2.45;;
30398;SDS011;17195;50.838;7.214;2023-02-01T16:32:15;11.90;;;2.15;;
30398;SDS011;17195;50.838;7.214;2023-02-01T16:34:44;10.82;;;2.63;;
30398;SDS011;17195;50.838;7.214;2023-02-01T16:37:15;15.02;;;2.53;;
30398;SDS011;17195;50.838;7.214;2023-02-01T16:39:45;9.88;;;2.13;;
30398;SDS011;17195;50.838;7.214;2023-02-01T16:42:11;12.98;;;2.47;;
30398;SDS011;17195;50.838;7.214;2023-02-01T16:44:38;13.38;;;2.78;;
30398;SDS011;17195;50.838;7.214;2023-02-01T16:47:05;14.60;;;3.22;;
30398;SDS011;17195;50.838;7.214;2023-02-01T16:49:38;10.32;;;2.47;;
30398;SDS011;17195;50.838;7.214;2023-02-01T16:52:08;19.45;;;3.08;;
30398;SDS011;17195;50.838;7.214;2023-02-01T16:54:40;16.65;;;3.47;;
30398;SDS011;17195;50.838;7.214;2023-02-01T16:57:10;16.52;;;3.33;;
30398;SDS011;17195;50.838;7.214;2023-02-01T16:59:37;14.10;;;2.90;;
30398;SDS011;17195;50.838;7.214;2023-02-01T17:02:03;17.75;;;3.53;;
30398;SDS011;17195;50.838;7.214;2023-02-01T17:04:28;14.82;;;3.88;;
30398;SDS011;17195;50.838;7.214;2023-02-01T17:06:54;17.80;;;4.05;;
30398;SDS011;17195;50.838;7.214;2023-02-01T17:09:20;21.33;;;3.35;;
30398;SDS011;17195;50.838;7.214;2023-02-01T17:11:47;16.05;;;2.65;;
30398;SDS011;17195;50.838;7.214;2023-02-01T17:14:17;15.02;;;2.42;;
30398;SDS011;17195;50.838;7.214;2023-02-01T17:16:47;14.85;;;3.20;;
30398;SDS011;17195;50.838;7.214;2023-02-01T17:19:15;13.68;;;3.17;;
30398;SDS011;17195;50.838;7.214;2023-02-01T17:21:43;11.07;;;3.55;;
30398;SDS011;17195;50.838;7.214;2023-02-01T17:24:12;10.48;;;2.30;;
30398;SDS011;17195;50.838;7.214;2023-02-01T17:26:39;17.83;;;3.05;;
30398;SDS011;17195;50.838;7.214;2023-02-01T17:29:05;15.45;;;2.80;;
30398;SDS011;17195;50.838;7.214;2023-02-01T17:31:31;20.63;;;3.17;;
30398;SDS011;17195;50.838;7.214;2023-02-01T17:34:00;11.50;;;3.78;;